createdAt,value
2017-06-17T00:01:30.405Z,14.70
2017-06-17T00:03:58.665Z,14.60
2017-06-17T00:06:26.230Z,14.50
2017-06-17T00:08:53.699Z,14.60
2017-06-17T00:11:21.954Z,14.60
2017-06-17T00:13:49.527Z,14.50
2017-06-17T00:16:17.786Z,14.50
2017-06-17T00:18:45.282Z,14.50
2017-06-17T00:21:12.810Z,14.50
2017-06-17T00:23:41.077Z,14.50
2017-06-17T00:26:08.554Z,14.40
2017-06-17T00:28:36.097Z,14.50
2017-06-17T00:31:04.331Z,14.50
2017-06-17T00:33:31.833Z,14.40
2017-06-17T00:36:00.070Z,14.40
2017-06-17T00:38:27.615Z,14.40
2017-06-17T00:40:55.090Z,14.40
2017-06-17T00:43:22.572Z,14.40
2017-06-17T00:45:50.042Z,14.40
2017-06-17T00:48:18.281Z,14.30
2017-06-17T00:50:45.742Z,14.20
2017-06-17T00:53:13.225Z,14.30
2017-06-17T00:55:41.551Z,14.30
2017-06-17T00:58:09.053Z,14.30
2017-06-17T01:00:37.298Z,14.20
2017-06-17T01:03:04.777Z,14.20
2017-06-17T01:05:32.253Z,14.30
2017-06-17T01:08:00.519Z,14.20
2017-06-17T01:10:28.819Z,14.20
2017-06-17T01:12:56.308Z,14.20
2017-06-17T01:15:23.916Z,14.20
2017-06-17T01:17:52.170Z,14.20
2017-06-17T01:20:19.637Z,14.10
2017-06-17T01:22:47.207Z,14.20
2017-06-17T01:25:15.473Z,14.10
2017-06-17T01:27:43.090Z,14.10
2017-06-17T01:30:10.564Z,14.20
2017-06-17T01:32:38.052Z,14.20
2017-06-17T01:35:06.290Z,14.10
2017-06-17T01:37:33.767Z,14.00
2017-06-17T01:40:01.238Z,14.00
2017-06-17T01:42:29.518Z,14.00
2017-06-17T01:44:57.789Z,14.00
2017-06-17T01:47:25.254Z,14.00
2017-06-17T01:49:53.525Z,14.00
2017-06-17T01:52:21.761Z,14.00
2017-06-17T01:54:49.246Z,14.00
2017-06-17T01:57:16.806Z,14.00
2017-06-17T01:59:44.285Z,14.00
2017-06-17T02:02:11.758Z,13.90
2017-06-17T02:04:39.245Z,14.00
2017-06-17T02:07:06.738Z,14.10
2017-06-17T02:09:35.018Z,14.10
2017-06-17T02:12:03.266Z,14.10
2017-06-17T02:14:30.746Z,14.10
2017-06-17T02:16:59.075Z,14.10
2017-06-17T02:19:26.586Z,14.00
2017-06-17T02:21:54.857Z,14.10
2017-06-17T02:24:22.317Z,14.00
2017-06-17T02:26:50.569Z,14.20
2017-06-17T02:29:18.051Z,14.10
2017-06-17T02:31:46.326Z,14.10
2017-06-17T02:34:14.562Z,14.10
2017-06-17T02:36:42.054Z,14.00
2017-06-17T02:39:10.343Z,14.20
2017-06-17T02:41:38.606Z,14.20
2017-06-17T02:44:06.081Z,14.10
2017-06-17T02:46:33.623Z,14.20
2017-06-17T02:49:01.870Z,14.20
2017-06-17T02:51:29.354Z,14.10
2017-06-17T02:53:57.632Z,14.20
2017-06-17T02:56:25.865Z,14.20
2017-06-17T02:58:53.347Z,14.10
2017-06-17T03:01:20.822Z,14.20
2017-06-17T03:03:49.061Z,14.20
2017-06-17T03:06:16.540Z,14.10
2017-06-17T03:08:44.013Z,14.20
2017-06-17T03:11:12.253Z,14.20
2017-06-17T03:13:39.738Z,14.20
2017-06-17T03:16:08.101Z,14.20
2017-06-17T03:18:35.724Z,14.20
2017-06-17T03:21:03.196Z,14.30
2017-06-17T03:23:30.737Z,14.30
2017-06-17T03:25:58.255Z,14.30
2017-06-17T03:28:26.509Z,14.20
2017-06-17T03:30:53.989Z,14.10
2017-06-17T03:33:22.231Z,14.30
2017-06-17T03:35:49.701Z,14.20
2017-06-17T03:38:17.977Z,14.20
2017-06-17T03:40:45.550Z,14.10
2017-06-17T03:43:13.813Z,14.20
2017-06-17T03:45:42.088Z,14.20
2017-06-17T03:48:10.365Z,14.30
2017-06-17T03:50:38.610Z,14.30
2017-06-17T03:53:06.077Z,14.30
2017-06-17T03:55:33.554Z,14.30
2017-06-17T03:58:01.111Z,14.30
2017-06-17T04:00:28.669Z,14.30
2017-06-17T04:02:56.942Z,14.30
2017-06-17T04:05:24.505Z,14.20
2017-06-17T04:07:51.985Z,14.30
2017-06-17T04:10:19.526Z,14.30
2017-06-17T04:12:47.798Z,14.30
2017-06-17T04:15:15.359Z,14.20
2017-06-17T04:17:42.870Z,14.30
2017-06-17T04:20:10.349Z,14.30
2017-06-17T04:22:37.945Z,14.20
2017-06-17T04:25:06.202Z,14.20
2017-06-17T04:27:33.757Z,14.20
2017-06-17T04:30:01.274Z,14.30
2017-06-17T04:32:28.778Z,14.30
2017-06-17T04:34:56.338Z,14.40
2017-06-17T04:37:23.802Z,14.50
2017-06-17T04:39:52.042Z,14.40
2017-06-17T04:42:19.518Z,14.40
2017-06-17T04:44:47.034Z,14.40
2017-06-17T04:47:14.541Z,14.50
2017-06-17T04:49:42.013Z,14.50
2017-06-17T04:52:10.254Z,14.70
2017-06-17T04:54:37.731Z,14.60
2017-06-17T04:57:05.285Z,14.70
2017-06-17T04:59:32.770Z,14.70
2017-06-17T05:02:00.308Z,14.60
2017-06-17T05:04:28.593Z,14.60
2017-06-17T05:06:56.853Z,14.60
2017-06-17T05:09:24.345Z,14.50
2017-06-17T05:11:51.821Z,14.60
2017-06-17T05:14:19.281Z,14.50
2017-06-17T05:16:46.761Z,14.50
2017-06-17T05:19:14.254Z,14.70
2017-06-17T05:21:42.521Z,14.80
2017-06-17T05:24:10.001Z,14.80
2017-06-17T05:26:37.471Z,14.90
2017-06-17T05:29:04.987Z,14.90
2017-06-17T05:31:32.543Z,14.90
2017-06-17T05:34:00.102Z,14.90
2017-06-17T05:36:27.565Z,15.00
2017-06-17T05:38:55.798Z,15.10
2017-06-17T05:41:23.273Z,15.00
2017-06-17T05:43:50.800Z,15.10
2017-06-17T05:46:18.281Z,15.10
2017-06-17T05:48:45.761Z,15.00
2017-06-17T05:51:13.235Z,15.10
2017-06-17T05:53:41.495Z,15.10
2017-06-17T05:56:09.734Z,15.10
2017-06-17T05:58:37.204Z,15.00
2017-06-17T06:01:04.673Z,15.10
2017-06-17T06:03:32.143Z,15.20
2017-06-17T06:06:00.442Z,15.20
2017-06-17T06:08:27.975Z,15.10
2017-06-17T06:10:56.242Z,15.10
2017-06-17T06:13:23.813Z,15.10
2017-06-17T06:15:51.332Z,15.10
2017-06-17T06:18:18.797Z,15.10
2017-06-17T06:20:46.331Z,15.20
2017-06-17T06:23:13.841Z,15.10
2017-06-17T06:25:41.302Z,15.10
2017-06-17T06:28:09.570Z,15.40
2017-06-17T06:30:37.126Z,15.30
2017-06-17T06:33:04.594Z,15.40
2017-06-17T06:35:32.834Z,15.40
2017-06-17T06:38:00.366Z,15.40
2017-06-17T06:40:27.884Z,15.40
2017-06-17T06:42:56.114Z,15.50
2017-06-17T06:45:23.593Z,15.40
2017-06-17T06:47:51.158Z,15.40
2017-06-17T06:50:18.637Z,15.50
2017-06-17T06:52:46.898Z,15.70
2017-06-17T06:55:15.137Z,15.60
2017-06-17T06:57:42.680Z,15.60
2017-06-17T07:00:10.161Z,15.70
2017-06-17T07:02:37.641Z,15.70
2017-06-17T07:05:05.107Z,15.80
2017-06-17T07:07:33.342Z,15.80
2017-06-17T07:10:00.838Z,15.80
2017-06-17T07:12:29.086Z,16.00
2017-06-17T07:14:56.546Z,16.00
2017-06-17T07:17:24.117Z,16.10
2017-06-17T07:19:51.683Z,16.20
2017-06-17T07:22:19.237Z,16.10
2017-06-17T07:24:46.797Z,16.10
2017-06-17T07:27:14.354Z,16.00
2017-06-17T07:29:41.910Z,15.90
2017-06-17T07:32:09.474Z,15.90
2017-06-17T07:34:36.934Z,15.90
2017-06-17T07:37:05.257Z,16.10
2017-06-17T07:39:32.767Z,16.00
2017-06-17T07:42:01.046Z,16.30
2017-06-17T07:44:29.321Z,16.50
2017-06-17T07:46:57.591Z,16.50
2017-06-17T07:49:25.154Z,16.40
2017-06-17T07:51:53.438Z,16.60
2017-06-17T07:54:22.629Z,16.60
2017-06-17T07:56:50.906Z,16.70
2017-06-17T07:59:19.177Z,16.60
2017-06-17T08:01:47.450Z,16.50
2017-06-17T08:04:14.918Z,16.50
2017-06-17T08:06:43.186Z,16.50
2017-06-17T08:09:11.456Z,16.50
2017-06-17T08:11:39.027Z,16.40
2017-06-17T08:14:07.320Z,16.50
2017-06-17T08:16:34.811Z,16.50
2017-06-17T08:19:02.298Z,16.60
2017-06-17T08:21:29.773Z,16.80
2017-06-17T08:23:58.034Z,17.10
2017-06-17T08:26:25.589Z,17.00
2017-06-17T08:28:53.072Z,17.20
2017-06-17T08:31:21.381Z,17.20
2017-06-17T08:33:48.882Z,17.10
2017-06-17T08:36:16.441Z,17.10
2017-06-17T08:38:44.005Z,17.10
2017-06-17T08:41:11.562Z,17.20
2017-06-17T08:43:39.025Z,17.20
2017-06-17T08:46:07.294Z,17.20
2017-06-17T08:48:35.526Z,17.20
2017-06-17T08:51:03.023Z,17.20
2017-06-17T08:53:30.627Z,17.20
2017-06-17T08:55:58.111Z,17.20
2017-06-17T08:58:25.605Z,17.20
2017-06-17T09:00:53.155Z,17.10
2017-06-17T09:03:20.630Z,17.20
2017-06-17T09:05:48.886Z,17.40
2017-06-17T09:08:16.458Z,17.30
2017-06-17T09:10:44.725Z,17.60
2017-06-17T09:13:12.958Z,17.60
2017-06-17T09:15:40.422Z,17.50
2017-06-17T09:18:07.913Z,17.60
2017-06-17T09:20:36.145Z,17.50
2017-06-17T09:23:03.621Z,17.50
2017-06-17T09:25:31.139Z,17.50
2017-06-17T09:27:58.617Z,17.50
2017-06-17T09:30:26.105Z,17.50
2017-06-17T09:32:53.587Z,17.50
2017-06-17T09:35:21.818Z,17.80
2017-06-17T09:37:49.305Z,17.80
2017-06-17T09:40:16.865Z,18.30
2017-06-17T09:42:44.338Z,18.90
2017-06-17T09:45:12.590Z,19.30
2017-06-17T09:47:40.149Z,19.20
2017-06-17T09:50:07.618Z,18.90
2017-06-17T09:52:35.881Z,19.00
2017-06-17T09:55:03.359Z,19.00
2017-06-17T09:57:30.897Z,18.90
2017-06-17T09:59:58.369Z,18.90
2017-06-17T10:02:26.629Z,18.70
2017-06-17T10:04:54.206Z,18.60
2017-06-17T10:07:22.573Z,19.60
2017-06-17T10:09:50.849Z,19.90
2017-06-17T10:12:19.128Z,20.00
2017-06-17T10:14:47.367Z,20.10
2017-06-17T10:17:14.834Z,20.00
2017-06-17T10:19:42.310Z,20.20
2017-06-17T10:22:09.782Z,20.30
2017-06-17T10:24:38.041Z,20.70
2017-06-17T10:27:05.515Z,20.60
2017-06-17T10:29:33.737Z,19.90
2017-06-17T10:32:01.233Z,19.80
2017-06-17T10:34:29.512Z,20.10
2017-06-17T10:36:57.786Z,20.40
2017-06-17T10:39:26.056Z,20.80
2017-06-17T10:41:53.525Z,20.70
2017-06-17T10:44:21.745Z,21.10
2017-06-17T10:46:49.209Z,21.00
2017-06-17T10:49:16.698Z,21.30
2017-06-17T10:51:44.261Z,21.30
2017-06-17T10:54:11.809Z,21.20
2017-06-17T10:56:39.397Z,21.30
2017-06-17T10:59:07.626Z,21.70
2017-06-17T11:01:35.098Z,21.70
2017-06-17T11:04:02.562Z,22.00
2017-06-17T11:06:30.136Z,22.10
2017-06-17T11:08:57.683Z,21.70
2017-06-17T11:11:25.236Z,21.50
2017-06-17T11:13:52.789Z,21.80
2017-06-17T11:16:20.257Z,21.50
2017-06-17T11:18:47.817Z,21.50
2017-06-17T11:21:15.365Z,21.30
2017-06-17T11:23:42.926Z,21.00
2017-06-17T11:26:10.383Z,21.30
2017-06-17T11:28:37.857Z,21.70
2017-06-17T11:31:06.093Z,22.40
2017-06-17T11:33:33.623Z,22.30
2017-06-17T11:36:01.129Z,22.50
2017-06-17T11:38:28.603Z,22.50
2017-06-17T11:40:56.846Z,22.30
2017-06-17T11:43:24.314Z,22.30
2017-06-17T11:45:51.930Z,22.40
2017-06-17T11:48:19.430Z,22.30
2017-06-17T11:50:46.907Z,22.40
2017-06-17T11:53:15.174Z,22.90
2017-06-17T11:55:42.637Z,22.90
2017-06-17T11:58:10.873Z,22.50
2017-06-17T12:00:38.359Z,22.50
2017-06-17T12:03:05.918Z,22.50
2017-06-17T12:05:33.386Z,22.70
2017-06-17T12:08:01.644Z,23.20
2017-06-17T12:10:29.130Z,23.10
2017-06-17T12:12:56.661Z,22.70
2017-06-17T12:15:24.223Z,22.60
2017-06-17T12:17:51.778Z,22.30
2017-06-17T12:20:19.234Z,22.10
2017-06-17T12:22:46.703Z,22.30
2017-06-17T12:25:14.974Z,23.00
2017-06-17T12:27:42.526Z,22.90
2017-06-17T12:30:10.034Z,23.00
2017-06-17T12:32:37.509Z,23.10
2017-06-17T12:35:05.001Z,23.10
2017-06-17T12:37:32.554Z,23.00
2017-06-17T12:40:00.118Z,23.30
2017-06-17T12:42:27.683Z,23.70
2017-06-17T12:44:55.910Z,23.50
2017-06-17T12:47:24.955Z,23.50
2017-06-17T12:49:53.235Z,23.60
2017-06-17T12:52:21.503Z,23.60
2017-06-17T12:54:49.771Z,23.80
2017-06-17T12:57:17.286Z,23.70
2017-06-17T12:59:44.761Z,24.00
2017-06-17T13:02:12.292Z,24.20
2017-06-17T13:04:39.761Z,24.00
2017-06-17T13:07:07.349Z,23.70
2017-06-17T13:09:34.910Z,23.60
2017-06-17T13:12:03.181Z,23.90
2017-06-17T13:14:30.740Z,23.90
2017-06-17T13:16:58.297Z,23.70
2017-06-17T13:19:25.830Z,23.80
2017-06-17T13:21:53.299Z,24.00
2017-06-17T13:24:20.895Z,23.90
2017-06-17T13:26:49.158Z,24.10
2017-06-17T13:29:16.636Z,24.00
2017-06-17T13:31:44.881Z,24.00
2017-06-17T13:34:12.437Z,24.00
2017-06-17T13:36:39.996Z,24.10
2017-06-17T13:39:07.463Z,24.30
2017-06-17T13:41:34.970Z,24.40
2017-06-17T13:44:02.425Z,24.70
2017-06-17T13:46:29.888Z,25.10
2017-06-17T13:48:57.390Z,25.20
2017-06-17T13:51:24.859Z,25.40
2017-06-17T13:53:52.334Z,25.40
2017-06-17T13:56:19.889Z,25.40
2017-06-17T13:58:47.417Z,25.60
2017-06-17T14:01:14.891Z,25.90
2017-06-17T14:03:43.126Z,26.00
2017-06-17T14:06:10.665Z,26.00
2017-06-17T14:08:38.131Z,26.20
2017-06-17T14:11:05.623Z,26.30
2017-06-17T14:13:33.088Z,26.60
2017-06-17T14:16:01.350Z,26.70
2017-06-17T14:18:28.914Z,26.70
2017-06-17T14:21:02.152Z,26.40
2017-06-17T14:23:29.623Z,26.30
2017-06-17T14:25:57.113Z,26.10
2017-06-17T14:28:24.591Z,25.80
2017-06-17T14:30:52.858Z,25.00
2017-06-17T14:33:20.402Z,25.00
2017-06-17T14:35:47.958Z,24.90
2017-06-17T14:38:15.530Z,25.00
2017-06-17T14:40:43.087Z,25.30
2017-06-17T14:43:10.638Z,25.60
2017-06-17T14:45:38.204Z,25.60
2017-06-17T14:48:05.664Z,25.20
2017-06-17T14:50:33.940Z,25.10
2017-06-17T14:53:01.495Z,25.10
2017-06-17T14:55:28.971Z,25.10
2017-06-17T14:57:57.194Z,24.80
2017-06-17T15:00:24.673Z,24.80
2017-06-17T15:02:52.548Z,24.50
2017-06-17T15:05:20.017Z,24.20
2017-06-17T15:07:48.274Z,24.20
2017-06-17T15:10:15.743Z,24.10
2017-06-17T15:12:43.973Z,24.70
2017-06-17T15:15:11.461Z,24.60
2017-06-17T15:17:39.017Z,24.80
2017-06-17T15:20:06.590Z,24.50
2017-06-17T15:22:34.046Z,24.30
2017-06-17T15:25:02.282Z,23.80
2017-06-17T15:27:29.750Z,23.70
2017-06-17T15:29:57.335Z,23.60
2017-06-17T15:32:24.801Z,23.60
2017-06-17T15:34:53.167Z,23.40
2017-06-17T15:37:20.727Z,23.40
2017-06-17T15:39:48.273Z,23.40
2017-06-17T15:42:15.746Z,23.40
2017-06-17T15:44:44.071Z,23.50
2017-06-17T15:47:11.582Z,23.40
2017-06-17T15:49:39.814Z,23.70
2017-06-17T15:52:07.329Z,23.60
2017-06-17T15:54:35.558Z,24.30
2017-06-17T15:57:03.135Z,24.20
2017-06-17T15:59:30.858Z,24.40
2017-06-17T16:01:58.323Z,24.00
2017-06-17T16:04:25.817Z,23.80
2017-06-17T16:06:53.366Z,23.80
2017-06-17T16:09:20.822Z,23.70
2017-06-17T16:11:48.440Z,23.70
2017-06-17T16:14:15.947Z,23.70
2017-06-17T16:16:43.496Z,23.70
2017-06-17T16:19:11.061Z,23.80
2017-06-17T16:21:38.533Z,23.70
2017-06-17T16:24:06.848Z,23.40
2017-06-17T16:26:34.639Z,23.40
2017-06-17T16:29:02.119Z,23.70
2017-06-17T16:31:29.723Z,24.10
2017-06-17T16:33:57.229Z,24.40
2017-06-17T16:36:24.702Z,24.30
2017-06-17T16:38:52.965Z,24.20
2017-06-17T16:41:20.521Z,24.20
2017-06-17T16:43:48.136Z,24.40
2017-06-17T16:46:15.648Z,24.40
2017-06-17T16:48:43.201Z,24.30
2017-06-17T16:51:10.675Z,24.00
2017-06-17T16:53:38.921Z,23.60
2017-06-17T16:56:06.386Z,23.50
2017-06-17T16:58:33.949Z,23.50
2017-06-17T17:01:01.508Z,23.40
2017-06-17T17:03:29.015Z,23.30
2017-06-17T17:05:56.493Z,23.40
2017-06-17T17:08:23.974Z,23.50
2017-06-17T17:10:51.532Z,23.60
2017-06-17T17:13:19.001Z,23.60
2017-06-17T17:15:47.241Z,23.30
2017-06-17T17:18:14.705Z,23.30
2017-06-17T17:20:42.280Z,23.30
2017-06-17T17:23:09.750Z,23.30
2017-06-17T17:25:38.017Z,23.20
2017-06-17T17:28:05.569Z,23.10
2017-06-17T17:30:33.028Z,23.10
2017-06-17T17:33:00.591Z,23.10
2017-06-17T17:35:28.054Z,23.00
2017-06-17T17:37:55.601Z,22.90
2017-06-17T17:40:23.849Z,22.80
2017-06-17T17:42:51.710Z,22.80
2017-06-17T17:45:19.173Z,22.90
2017-06-17T17:47:46.711Z,22.90
2017-06-17T17:50:14.209Z,22.80
2017-06-17T17:52:41.766Z,22.80
2017-06-17T17:55:09.230Z,22.60
2017-06-17T17:57:36.785Z,22.60
2017-06-17T18:00:04.247Z,22.70
2017-06-17T18:02:31.801Z,22.80
2017-06-17T18:04:59.314Z,22.70
2017-06-17T18:07:26.858Z,22.70
2017-06-17T18:09:54.317Z,22.70
2017-06-17T18:12:21.830Z,22.70
2017-06-17T18:14:49.389Z,22.70
2017-06-17T18:17:16.945Z,22.70
2017-06-17T18:19:44.506Z,22.80
2017-06-17T18:22:11.961Z,22.90
2017-06-17T18:24:39.505Z,22.90
2017-06-17T18:27:06.978Z,22.90
2017-06-17T18:29:34.551Z,23.00
2017-06-17T18:32:02.818Z,23.00
2017-06-17T18:34:30.290Z,22.90
2017-06-17T18:36:58.554Z,22.90
2017-06-17T18:39:26.022Z,22.90
2017-06-17T18:41:54.282Z,22.80
2017-06-17T18:44:21.749Z,22.80
2017-06-17T18:46:50.015Z,22.80
2017-06-17T18:49:17.573Z,22.70
2017-06-17T18:51:45.042Z,22.70
2017-06-17T18:54:12.639Z,22.60
2017-06-17T18:56:40.098Z,22.50
2017-06-17T18:59:07.602Z,22.40
2017-06-17T19:01:35.156Z,22.30
2017-06-17T19:04:02.721Z,22.10
2017-06-17T19:06:30.279Z,22.00
2017-06-17T19:08:57.736Z,21.90
2017-06-17T19:11:25.285Z,21.80
2017-06-17T19:13:52.745Z,21.80
2017-06-17T19:16:20.312Z,21.70
2017-06-17T19:18:48.563Z,21.50
2017-06-17T19:21:16.040Z,21.50
2017-06-17T19:23:43.589Z,21.50
2017-06-17T19:26:11.046Z,21.50
2017-06-17T19:28:39.325Z,21.40
2017-06-17T19:31:06.882Z,21.30
2017-06-17T19:33:34.441Z,21.40
2017-06-17T19:36:01.906Z,21.40
2017-06-17T19:38:29.457Z,21.30
2017-06-17T19:40:56.922Z,21.30
2017-06-17T19:43:24.485Z,21.30
2017-06-17T19:45:52.722Z,21.30
2017-06-17T19:48:20.210Z,21.20
2017-06-17T19:50:47.670Z,21.20
2017-06-17T19:53:15.139Z,21.20
2017-06-17T19:55:43.503Z,21.10
2017-06-17T19:58:10.978Z,21.10
2017-06-17T20:00:39.211Z,21.00
2017-06-17T20:03:06.677Z,20.90
2017-06-17T20:05:34.246Z,21.00
2017-06-17T20:08:01.809Z,20.90
2017-06-17T20:10:29.289Z,20.90
2017-06-17T20:12:57.540Z,20.80
2017-06-17T20:15:25.146Z,20.80
2017-06-17T20:17:52.705Z,20.80
2017-06-17T20:20:20.217Z,20.80
2017-06-17T20:22:48.498Z,20.70
2017-06-17T20:25:16.050Z,20.70
2017-06-17T20:27:43.613Z,20.70
2017-06-17T20:30:11.887Z,20.60
2017-06-17T20:32:40.120Z,20.60
2017-06-17T20:35:07.610Z,20.50
2017-06-17T20:37:35.183Z,20.60
2017-06-17T20:40:03.453Z,20.60
2017-06-17T20:42:31.010Z,20.50
2017-06-17T20:44:58.561Z,20.50
2017-06-17T20:47:26.071Z,20.40
2017-06-17T20:49:53.610Z,20.30
2017-06-17T20:52:21.191Z,20.30
2017-06-17T20:54:48.748Z,20.20
2017-06-17T20:57:16.357Z,20.10
2017-06-17T20:59:43.915Z,20.10
2017-06-17T21:02:11.483Z,20.10
2017-06-17T21:04:39.760Z,20.00
2017-06-17T21:07:07.994Z,20.00
2017-06-17T21:09:35.454Z,20.00
2017-06-17T21:12:02.934Z,20.00
2017-06-17T21:14:30.549Z,19.90
2017-06-17T21:16:58.014Z,19.90
2017-06-17T21:19:25.481Z,19.80
2017-06-17T21:21:52.961Z,19.80
2017-06-17T21:24:20.430Z,19.70
2017-06-17T21:26:48.698Z,19.60
2017-06-17T21:29:16.258Z,19.50
2017-06-17T21:31:43.813Z,19.60
2017-06-17T21:34:11.428Z,19.50
2017-06-17T21:36:38.934Z,19.40
2017-06-17T21:39:06.407Z,19.40
2017-06-17T21:41:34.666Z,19.30
2017-06-17T21:44:02.152Z,19.20
2017-06-17T21:46:29.612Z,19.20
2017-06-17T21:48:57.091Z,19.10
2017-06-17T21:51:24.554Z,19.00
2017-06-17T21:53:52.059Z,19.00
2017-06-17T21:56:20.325Z,18.90
2017-06-17T21:58:47.835Z,18.80
2017-06-17T22:01:15.333Z,18.90
2017-06-17T22:03:42.897Z,18.90
2017-06-17T22:06:10.454Z,18.90
2017-06-17T22:08:37.915Z,19.00
2017-06-17T22:11:05.386Z,18.90
2017-06-17T22:13:33.750Z,18.90
2017-06-17T22:16:01.301Z,18.80
2017-06-17T22:18:28.857Z,18.80
2017-06-17T22:20:56.329Z,18.90
2017-06-17T22:23:24.563Z,18.80
2017-06-17T22:25:52.055Z,18.80
2017-06-17T22:28:19.664Z,18.80
2017-06-17T22:30:47.166Z,18.80
2017-06-17T22:33:14.725Z,18.80
2017-06-17T22:35:42.185Z,18.70
2017-06-17T22:38:09.653Z,18.70
2017-06-17T22:40:37.970Z,18.60
2017-06-17T22:43:05.433Z,18.60
2017-06-17T22:45:32.908Z,18.60
2017-06-17T22:48:00.441Z,18.60
2017-06-17T22:50:27.951Z,18.60
2017-06-17T22:52:56.185Z,18.50
2017-06-17T22:55:23.677Z,18.50
2017-06-17T22:57:51.277Z,18.50
2017-06-17T23:00:18.737Z,18.50
2017-06-17T23:02:46.247Z,18.40
2017-06-17T23:05:13.714Z,18.20
2017-06-17T23:07:41.269Z,18.10
2017-06-17T23:10:08.751Z,18.00
2017-06-17T23:12:36.964Z,17.90
2017-06-17T23:15:04.441Z,17.90
2017-06-17T23:17:31.932Z,17.80
2017-06-17T23:20:00.170Z,17.60
2017-06-17T23:22:27.654Z,17.60
2017-06-17T23:24:55.913Z,17.60
2017-06-17T23:27:23.392Z,17.50
2017-06-17T23:29:51.628Z,17.60
2017-06-17T23:32:19.122Z,17.50
2017-06-17T23:34:47.374Z,17.60
2017-06-17T23:37:14.943Z,17.60
2017-06-17T23:39:42.502Z,17.60
2017-06-17T23:42:10.773Z,17.70
2017-06-17T23:44:38.335Z,17.60
2017-06-17T23:47:05.895Z,17.70
2017-06-17T23:49:34.165Z,17.70
2017-06-17T23:52:01.689Z,17.60
2017-06-17T23:54:29.186Z,17.70
2017-06-17T23:56:56.646Z,17.70
2017-06-17T23:59:24.911Z,17.70
